createdAt,value
2019-05-01T00:02:35.534Z,31.67
2019-05-01T00:05:13.698Z,31.17
2019-05-01T00:07:43.737Z,30.13
2019-05-01T00:10:14.696Z,28.93
2019-05-01T00:12:44.583Z,31.50
2019-05-01T00:15:15.548Z,32.00
2019-05-01T00:17:45.626Z,32.37
2019-05-01T00:20:15.892Z,31.03
2019-05-01T00:22:45.657Z,31.50
2019-05-01T00:25:15.446Z,31.93
2019-05-01T00:27:45.663Z,31.30
2019-05-01T00:30:29.263Z,32.97
2019-05-01T00:32:49.862Z,32.17
2019-05-01T00:35:19.556Z,34.07
2019-05-01T00:37:49.546Z,32.57
2019-05-01T00:40:19.227Z,30.90
2019-05-01T00:42:49.028Z,31.87
2019-05-01T00:45:19.219Z,31.80
2019-05-01T00:47:49.540Z,31.57
2019-05-01T00:50:19.388Z,30.93
2019-05-01T00:52:49.632Z,30.93
2019-05-01T00:55:37.000Z,31.77
2019-05-01T00:58:22.471Z,31.10
2019-05-01T01:01:21.017Z,29.50
2019-05-01T01:03:51.017Z,30.13
2019-05-01T01:06:20.723Z,34.23
2019-05-01T01:08:50.552Z,30.57
2019-05-01T01:11:20.751Z,32.83
2019-05-01T01:13:50.587Z,32.03
2019-05-01T01:16:20.650Z,32.83
2019-05-01T01:18:50.834Z,33.37
2019-05-01T01:21:20.645Z,29.87
2019-05-01T01:23:50.820Z,31.87
2019-05-01T01:26:20.746Z,29.73
2019-05-01T01:28:50.571Z,32.17
2019-05-01T01:31:20.825Z,29.93
2019-05-01T01:33:52.638Z,31.90
2019-05-01T01:36:22.638Z,33.20
2019-05-01T01:38:52.377Z,31.03
2019-05-01T01:41:22.376Z,33.53
2019-05-01T01:44:13.865Z,31.20
2019-05-01T01:46:44.071Z,31.03
2019-05-01T01:49:14.763Z,31.90
2019-05-01T01:51:45.070Z,31.37
2019-05-01T01:54:15.078Z,29.80
2019-05-01T01:56:45.073Z,33.70
2019-05-01T01:59:15.443Z,28.07
2019-05-01T02:02:16.114Z,30.73
2019-05-01T02:04:54.470Z,30.90
2019-05-01T02:07:24.486Z,31.60
2019-05-01T02:09:54.418Z,31.97
2019-05-01T02:12:24.270Z,29.57
2019-05-01T02:14:54.298Z,31.60
2019-05-01T02:17:24.093Z,32.80
2019-05-01T02:19:53.818Z,29.80
2019-05-01T02:22:23.620Z,32.47
2019-05-01T02:24:53.581Z,29.30
2019-05-01T02:27:33.071Z,33.40
2019-05-01T02:30:04.398Z,31.63
2019-05-01T02:32:36.412Z,31.07
2019-05-01T02:35:06.836Z,30.10
2019-05-01T02:37:38.528Z,32.67
2019-05-01T02:41:01.878Z,31.50
2019-05-01T02:43:34.513Z,27.83
2019-05-01T02:46:05.724Z,32.87
2019-05-01T02:48:38.245Z,31.70
2019-05-01T02:51:09.625Z,32.53
2019-05-01T02:53:42.459Z,30.97
2019-05-01T02:56:39.736Z,30.60
2019-05-01T02:59:11.518Z,29.70
2019-05-01T03:01:47.132Z,30.03
2019-05-01T03:04:13.926Z,29.03
2019-05-01T03:06:44.763Z,32.43
2019-05-01T03:09:15.705Z,32.00
2019-05-01T03:11:47.515Z,32.27
2019-05-01T03:14:20.520Z,28.07
2019-05-01T03:16:52.229Z,29.27
2019-05-01T03:19:41.817Z,30.07
2019-05-01T03:22:29.522Z,33.10
2019-05-01T03:24:59.742Z,30.80
2019-05-01T03:27:29.755Z,29.43
2019-05-01T03:29:59.796Z,29.90
2019-05-01T03:32:29.928Z,31.70
2019-05-01T03:35:00.185Z,28.60
2019-05-01T03:37:30.851Z,30.63
2019-05-01T03:40:01.164Z,28.50
2019-05-01T03:42:30.876Z,28.73
2019-05-01T03:45:01.019Z,27.80
2019-05-01T03:47:31.832Z,30.90
2019-05-01T03:50:02.204Z,29.27
2019-05-01T03:52:32.343Z,29.90
2019-05-01T03:55:02.565Z,30.57
2019-05-01T03:57:32.401Z,31.00
2019-05-01T04:00:04.569Z,34.57
2019-05-01T04:03:02.131Z,34.30
2019-05-01T04:05:32.051Z,35.87
2019-05-01T04:08:01.901Z,33.53
2019-05-01T04:10:31.726Z,34.70
2019-05-01T04:13:01.471Z,34.07
2019-05-01T04:15:32.322Z,39.70
2019-05-01T04:18:03.846Z,36.53
2019-05-01T04:20:33.748Z,37.83
2019-05-01T04:23:04.172Z,42.00
2019-05-01T04:25:34.837Z,47.13
2019-05-01T04:28:23.889Z,52.33
2019-05-01T04:31:16.185Z,54.07
2019-05-01T04:33:47.404Z,53.07
2019-05-01T04:36:23.493Z,57.97
2019-05-01T04:38:53.603Z,55.70
2019-05-01T04:41:23.624Z,56.33
2019-05-01T04:43:54.478Z,59.30
2019-05-01T04:46:24.521Z,57.23
2019-05-01T04:48:54.821Z,58.87
2019-05-01T04:51:25.109Z,52.97
2019-05-01T04:53:55.024Z,53.80
2019-05-01T04:56:25.449Z,58.73
2019-05-01T04:58:56.114Z,57.83
2019-05-01T05:01:29.247Z,56.77
2019-05-01T05:03:59.416Z,54.20
2019-05-01T05:06:30.069Z,55.37
2019-05-01T05:09:00.255Z,55.43
2019-05-01T05:11:31.734Z,53.03
2019-05-01T05:14:12.199Z,56.07
2019-05-01T05:16:48.456Z,52.27
2019-05-01T05:19:18.725Z,50.93
2019-05-01T05:21:49.651Z,53.43
2019-05-01T05:24:19.782Z,54.77
2019-05-01T05:26:50.421Z,56.50
2019-05-01T05:29:22.691Z,56.00
2019-05-01T05:31:53.362Z,53.80
2019-05-01T05:34:25.996Z,56.10
2019-05-01T05:36:59.756Z,55.80
2019-05-01T05:39:36.260Z,55.00
2019-05-01T05:42:06.791Z,55.23
2019-05-01T05:44:36.721Z,60.47
2019-05-01T05:47:06.522Z,57.57
2019-05-01T05:49:36.597Z,59.33
2019-05-01T05:52:12.577Z,57.90
2019-05-01T05:55:15.265Z,62.50
2019-05-01T05:58:04.977Z,54.50
2019-05-01T06:00:54.558Z,61.87
2019-05-01T06:03:57.488Z,59.77
2019-05-01T06:06:49.622Z,59.37
2019-05-01T06:09:23.704Z,59.40
2019-05-01T06:12:17.429Z,56.50
2019-05-01T06:15:13.248Z,61.10
2019-05-01T06:17:48.028Z,57.23
2019-05-01T06:20:32.178Z,58.10
2019-05-01T06:23:22.487Z,57.37
2019-05-01T06:26:00.125Z,57.43
2019-05-01T06:28:29.730Z,57.50
2019-05-01T06:31:22.887Z,61.00
2019-05-01T06:33:52.975Z,62.23
2019-05-01T06:36:23.653Z,59.07
2019-05-01T06:38:52.817Z,64.50
2019-05-01T06:41:23.449Z,58.57
2019-05-01T06:44:04.106Z,56.00
2019-05-01T06:46:53.293Z,56.57
2019-05-01T06:49:42.109Z,55.27
2019-05-01T06:52:15.494Z,56.50
2019-05-01T06:54:47.788Z,56.67
2019-05-01T06:57:18.267Z,57.17
2019-05-01T06:59:50.153Z,57.37
2019-05-01T07:02:21.082Z,56.70
2019-05-01T07:04:51.316Z,55.30
2019-05-01T07:07:25.633Z,57.27
2019-05-01T07:09:56.651Z,57.87
2019-05-01T07:12:28.682Z,61.23
2019-05-01T07:15:00.375Z,59.97
2019-05-01T07:17:31.292Z,57.40
2019-05-01T07:20:36.636Z,57.00
2019-05-01T07:23:06.847Z,53.80
2019-05-01T07:25:39.410Z,54.47
2019-05-01T07:28:09.131Z,61.73
2019-05-01T07:30:44.307Z,57.70
2019-05-01T07:33:16.751Z,59.47
2019-05-01T07:35:46.399Z,59.07
2019-05-01T07:38:16.497Z,57.70
2019-05-01T07:40:47.518Z,59.30
2019-05-01T07:43:44.554Z,61.20
2019-05-01T07:46:33.626Z,59.03
2019-05-01T07:49:04.274Z,57.50
2019-05-01T07:51:37.837Z,54.67
2019-05-01T07:54:08.894Z,60.17
2019-05-01T07:56:38.446Z,66.37
2019-05-01T07:59:09.208Z,59.70
2019-05-01T08:02:00.501Z,59.80
2019-05-01T08:04:37.524Z,56.50
2019-05-01T08:07:01.729Z,53.70
2019-05-01T08:09:31.566Z,50.00
2019-05-01T08:12:01.452Z,50.30
2019-05-01T08:14:31.594Z,53.80
2019-05-01T08:17:01.840Z,51.43
2019-05-01T08:19:49.456Z,54.43
2019-05-01T08:22:24.705Z,51.50
2019-05-01T08:24:58.859Z,54.40
2019-05-01T08:27:51.081Z,51.87
2019-05-01T08:30:48.072Z,53.27
2019-05-01T08:33:51.589Z,51.07
2019-05-01T08:36:21.585Z,51.77
2019-05-01T08:38:51.336Z,51.87
2019-05-01T08:41:21.458Z,52.07
2019-05-01T08:43:54.182Z,48.70
2019-05-01T08:46:40.762Z,46.00
2019-05-01T08:49:18.171Z,50.20
2019-05-01T08:51:48.260Z,47.40
2019-05-01T08:54:17.956Z,46.40
2019-05-01T08:56:47.842Z,48.77
2019-05-01T08:59:19.360Z,49.90
2019-05-01T09:01:50.626Z,49.90
2019-05-01T09:04:25.399Z,50.77
2019-05-01T09:06:52.380Z,55.77
2019-05-01T09:09:22.390Z,50.70
2019-05-01T09:11:54.546Z,39.97
2019-05-01T09:14:23.452Z,42.73
2019-05-01T09:16:53.257Z,44.43
2019-05-01T09:19:23.135Z,42.90
2019-05-01T09:21:52.868Z,42.50
2019-05-01T09:24:23.200Z,43.90
2019-05-01T09:27:05.175Z,43.03
2019-05-01T09:29:51.312Z,39.23
2019-05-01T09:32:18.798Z,43.03
2019-05-01T09:34:49.296Z,47.20
2019-05-01T09:37:18.848Z,44.07
2019-05-01T09:39:48.929Z,45.70
2019-05-01T09:42:23.793Z,46.30
2019-05-01T09:44:50.543Z,43.87
2019-05-01T09:47:20.936Z,42.03
2019-05-01T09:49:53.955Z,42.40
2019-05-01T09:52:41.784Z,44.53
2019-05-01T09:55:23.089Z,51.40
2019-05-01T09:57:50.241Z,49.53
2019-05-01T10:00:31.348Z,52.43
2019-05-01T10:03:01.622Z,50.50
2019-05-01T10:05:31.847Z,49.77
2019-05-01T10:08:04.209Z,48.37
2019-05-01T10:10:33.471Z,47.87
2019-05-01T10:13:03.339Z,48.73
2019-05-01T10:15:33.048Z,51.97
2019-05-01T10:18:02.883Z,51.93
2019-05-01T10:20:32.699Z,51.10
2019-05-01T10:23:02.378Z,54.27
2019-05-01T10:25:32.136Z,56.53
2019-05-01T10:28:07.345Z,52.40
2019-05-01T10:31:13.201Z,55.67
2019-05-01T10:33:45.172Z,51.57
2019-05-01T10:36:33.815Z,54.23
2019-05-01T10:39:05.546Z,53.63
2019-05-01T10:41:35.344Z,48.10
2019-05-01T10:44:05.198Z,48.70
2019-05-01T10:46:35.014Z,51.27
2019-05-01T10:49:05.049Z,48.17
2019-05-01T10:51:34.933Z,45.97
2019-05-01T10:54:05.055Z,45.17
2019-05-01T10:56:34.853Z,48.30
2019-05-01T10:59:04.670Z,50.10
2019-05-01T11:01:46.808Z,52.57
2019-05-01T11:04:16.971Z,49.40
2019-05-01T11:06:46.937Z,47.97
2019-05-01T11:09:16.717Z,44.63
2019-05-01T11:11:46.547Z,44.33
2019-05-01T11:14:16.325Z,44.37
2019-05-01T11:16:46.588Z,44.53
2019-05-01T11:19:16.500Z,44.80
2019-05-01T11:21:46.348Z,46.37
2019-05-01T11:24:16.430Z,41.47
2019-05-01T11:26:46.332Z,37.67
2019-05-01T11:29:16.429Z,36.77
2019-05-01T11:31:59.082Z,39.10
2019-05-01T11:35:00.098Z,36.63
2019-05-01T11:38:06.931Z,36.90
2019-05-01T11:40:39.534Z,37.57
2019-05-01T11:43:09.325Z,36.07
2019-05-01T11:45:39.479Z,37.70
2019-05-01T11:48:09.376Z,38.37
2019-05-01T11:50:39.390Z,35.43
2019-05-01T11:53:09.403Z,37.27
2019-05-01T11:55:39.134Z,35.37
2019-05-01T11:58:09.151Z,35.87
2019-05-01T12:00:39.184Z,37.80
2019-05-01T12:03:09.293Z,36.97
2019-05-01T12:05:39.183Z,35.40
2019-05-01T12:08:09.886Z,34.87
2019-05-01T12:10:39.918Z,35.80
2019-05-01T12:13:10.488Z,34.27
2019-05-01T12:15:42.541Z,34.63
2019-05-01T12:18:12.482Z,35.90
2019-05-01T12:20:42.251Z,36.17
2019-05-01T12:23:12.453Z,34.47
2019-05-01T12:25:42.314Z,36.57
2019-05-01T12:28:12.102Z,36.47
2019-05-01T12:30:41.889Z,35.60
2019-05-01T12:33:11.795Z,36.07
2019-05-01T12:35:42.624Z,37.63
2019-05-01T12:38:12.481Z,37.67
2019-05-01T12:40:43.471Z,37.70
2019-05-01T12:43:13.437Z,38.17
2019-05-01T12:45:45.324Z,37.60
2019-05-01T12:48:15.110Z,38.00
2019-05-01T12:50:46.534Z,39.60
2019-05-01T12:53:21.595Z,36.93
2019-05-01T12:56:10.373Z,36.90
2019-05-01T12:58:40.322Z,38.00
2019-05-01T13:01:10.504Z,37.20
2019-05-01T13:03:40.625Z,36.47
2019-05-01T13:06:10.405Z,37.30
2019-05-01T13:08:40.964Z,36.40
2019-05-01T13:11:11.121Z,36.70
2019-05-01T13:13:42.938Z,35.60
2019-05-01T13:16:12.742Z,33.45
2019-05-01T13:39:31.602Z,34.00
2019-05-01T13:51:57.254Z,38.70
2019-05-01T13:54:27.431Z,36.23
2019-05-01T13:56:57.888Z,37.60
2019-05-01T13:59:27.626Z,40.00
2019-05-01T14:01:57.384Z,38.23
2019-05-01T14:04:28.520Z,38.50
2019-05-01T14:06:58.279Z,38.10
2019-05-01T14:09:31.940Z,38.53
2019-05-01T14:12:01.683Z,38.27
2019-05-01T14:14:31.544Z,37.03
2019-05-01T14:17:01.385Z,38.47
2019-05-01T14:19:32.394Z,39.50
2019-05-01T14:22:19.811Z,39.07
2019-05-01T14:24:52.703Z,39.30
2019-05-01T14:27:22.562Z,38.17
2019-05-01T14:29:52.670Z,40.23
2019-05-01T14:32:22.873Z,37.33
2019-05-01T14:34:53.146Z,38.27
2019-05-01T14:37:29.758Z,40.00
2019-05-01T14:39:55.132Z,38.87
2019-05-01T14:42:24.908Z,40.93
2019-05-01T14:44:54.613Z,36.30
2019-05-01T14:47:24.456Z,39.90
2019-05-01T14:49:54.463Z,38.37
2019-05-01T14:52:24.399Z,36.97
2019-05-01T14:54:54.172Z,38.37
2019-05-01T14:57:24.004Z,38.20
2019-05-01T14:59:54.219Z,38.57
2019-05-01T15:02:24.039Z,41.30
2019-05-01T15:04:53.794Z,41.10
2019-05-01T15:07:23.974Z,38.90
2019-05-01T15:09:54.025Z,37.10
2019-05-01T15:12:23.954Z,39.03
2019-05-01T15:15:12.673Z,36.50
2019-05-01T15:17:49.001Z,37.20
2019-05-01T15:20:19.112Z,41.10
2019-05-01T15:22:49.615Z,37.90
2019-05-01T15:25:19.440Z,39.53
2019-05-01T15:27:49.246Z,40.00
2019-05-01T15:30:19.932Z,41.30
2019-05-01T15:32:49.813Z,38.40
2019-05-01T15:35:19.671Z,38.60
2019-05-01T15:37:56.428Z,39.73
2019-05-01T15:40:32.773Z,38.90
2019-05-01T15:43:31.486Z,39.97
2019-05-01T15:46:01.218Z,40.07
2019-05-01T15:48:30.962Z,39.03
2019-05-01T15:51:00.873Z,40.27
2019-05-01T15:53:32.623Z,38.17
2019-05-01T15:56:02.462Z,41.23
2019-05-01T15:58:33.187Z,41.60
2019-05-01T16:01:03.215Z,41.63
2019-05-01T16:03:33.025Z,41.27
2019-05-01T16:06:02.799Z,42.67
2019-05-01T16:08:32.643Z,39.83
2019-05-01T16:11:12.412Z,40.27
2019-05-01T16:13:42.450Z,40.80
2019-05-01T16:16:12.543Z,43.53
2019-05-01T16:18:42.986Z,41.20
2019-05-01T16:21:13.192Z,42.80
2019-05-01T16:23:43.615Z,41.57
2019-05-01T16:26:14.165Z,42.97
2019-05-01T16:28:44.689Z,40.73
2019-05-01T16:31:14.540Z,42.50
2019-05-01T16:33:45.077Z,43.03
2019-05-01T16:36:15.383Z,43.27
2019-05-01T16:39:09.180Z,43.37
2019-05-01T16:41:38.981Z,44.93
2019-05-01T16:44:09.494Z,41.00
2019-05-01T16:46:40.013Z,43.67
2019-05-01T16:49:10.246Z,42.77
2019-05-01T16:51:41.336Z,42.50
2019-05-01T16:54:11.830Z,43.60
2019-05-01T16:56:42.375Z,38.93
2019-05-01T16:59:12.180Z,43.70
2019-05-01T17:01:48.835Z,43.73
2019-05-01T17:04:46.584Z,39.17
2019-05-01T17:07:34.453Z,40.50
2019-05-01T17:10:21.584Z,43.57
2019-05-01T17:12:54.226Z,43.23
2019-05-01T17:15:44.798Z,42.97
2019-05-01T17:18:15.033Z,41.10
2019-05-01T17:20:45.283Z,43.30
2019-05-01T17:23:16.055Z,43.00
2019-05-01T17:25:46.228Z,43.00
2019-05-01T17:28:16.261Z,43.63
2019-05-01T17:30:50.019Z,42.53
2019-05-01T17:33:22.130Z,43.87
2019-05-01T17:35:51.347Z,42.73
2019-05-01T17:38:22.093Z,43.30
2019-05-01T17:40:53.609Z,41.77
2019-05-01T17:43:23.409Z,41.90
2019-05-01T17:46:12.246Z,41.70
2019-05-01T17:48:42.136Z,43.77
2019-05-01T17:51:12.063Z,43.93
2019-05-01T17:53:41.877Z,43.87
2019-05-01T17:56:15.428Z,42.13
2019-05-01T17:58:43.342Z,43.00
2019-05-01T18:01:39.574Z,43.80
2019-05-01T18:04:30.787Z,44.63
2019-05-01T18:07:00.817Z,41.93
2019-05-01T18:09:30.607Z,40.80
2019-05-01T18:12:00.554Z,43.00
2019-05-01T18:14:30.377Z,41.60
2019-05-01T18:17:00.467Z,40.70
2019-05-01T18:19:30.526Z,42.80
2019-05-01T18:22:37.153Z,42.87
2019-05-01T18:25:33.211Z,43.03
2019-05-01T18:28:30.020Z,42.23
2019-05-01T18:30:58.475Z,42.90
2019-05-01T18:33:28.329Z,44.43
2019-05-01T18:35:58.078Z,45.67
2019-05-01T18:38:47.648Z,44.47
2019-05-01T18:41:20.537Z,47.73
2019-05-01T18:43:50.397Z,45.57
2019-05-01T18:46:20.267Z,44.47
2019-05-01T18:48:50.134Z,42.63
2019-05-01T18:51:19.975Z,46.00
2019-05-01T18:53:49.922Z,47.13
2019-05-01T18:56:19.737Z,46.90
2019-05-01T18:58:49.575Z,46.87
2019-05-01T19:01:19.529Z,46.90
2019-05-01T19:03:49.753Z,43.80
2019-05-01T19:06:19.604Z,42.80
2019-05-01T19:08:49.389Z,43.30
2019-05-01T19:11:20.050Z,49.63
2019-05-01T19:13:50.125Z,48.03
2019-05-01T19:16:19.975Z,45.93
2019-05-01T19:18:49.831Z,45.37
2019-05-01T19:21:23.770Z,44.40
2019-05-01T19:23:52.810Z,45.30
2019-05-01T19:26:23.250Z,47.67
2019-05-01T19:28:53.032Z,45.87
2019-05-01T19:31:23.092Z,46.17
2019-05-01T19:33:52.760Z,47.60
2019-05-01T19:36:22.528Z,47.60
2019-05-01T19:38:52.734Z,49.97
2019-05-01T19:41:22.851Z,49.30
2019-05-01T19:43:52.735Z,50.10
2019-05-01T19:46:22.617Z,57.10
2019-05-01T19:48:54.437Z,56.43
2019-05-01T19:51:25.981Z,51.17
2019-05-01T19:53:55.692Z,51.53
2019-05-01T19:56:25.359Z,55.57
2019-05-01T19:58:55.023Z,50.03
2019-05-01T20:01:25.361Z,53.77
2019-05-01T20:03:55.160Z,54.93
2019-05-01T20:06:24.919Z,52.10
2019-05-01T20:08:54.833Z,52.10
2019-05-01T20:11:24.690Z,51.63
2019-05-01T20:13:55.228Z,48.97
2019-05-01T20:16:25.334Z,53.07
2019-05-01T20:18:55.202Z,54.10
2019-05-01T20:21:25.015Z,54.17
2019-05-01T20:23:55.407Z,54.90
2019-05-01T20:26:26.829Z,51.97
2019-05-01T20:28:57.515Z,58.73
2019-05-01T20:31:32.645Z,56.60
2019-05-01T20:34:00.355Z,50.10
2019-05-01T20:36:30.314Z,50.93
2019-05-01T20:39:00.105Z,52.70
2019-05-01T20:41:30.203Z,53.03
2019-05-01T20:44:00.033Z,55.93
2019-05-01T20:46:30.525Z,53.60
2019-05-01T20:49:01.429Z,59.13
2019-05-01T20:51:32.318Z,55.83
2019-05-01T20:54:02.591Z,56.80
2019-05-01T20:56:53.365Z,54.10
2019-05-01T20:59:23.164Z,52.47
2019-05-01T21:01:53.012Z,54.83
2019-05-01T21:04:40.559Z,52.70
2019-05-01T21:07:23.948Z,49.97
2019-05-01T21:09:57.912Z,53.67
2019-05-01T21:12:25.626Z,54.80
2019-05-01T21:14:55.427Z,50.60
2019-05-01T21:17:25.642Z,51.03
2019-05-01T21:19:55.416Z,52.87
2019-05-01T21:22:25.480Z,50.30
2019-05-01T21:24:55.361Z,51.93
2019-05-01T21:27:25.915Z,53.60
2019-05-01T21:29:55.685Z,56.10
2019-05-01T21:32:27.492Z,54.87
2019-05-01T21:34:57.205Z,58.77
2019-05-01T21:37:27.009Z,59.83
2019-05-01T21:39:57.773Z,59.07
2019-05-01T21:42:27.865Z,69.77
2019-05-01T21:44:57.658Z,66.30
2019-05-01T21:47:27.758Z,65.87
2019-05-01T21:49:57.690Z,70.57
2019-05-01T21:52:27.526Z,60.57
2019-05-01T21:54:57.691Z,68.67
2019-05-01T21:57:30.034Z,64.33
2019-05-01T21:59:58.914Z,62.37
2019-05-01T22:02:28.960Z,61.70
2019-05-01T22:05:03.759Z,64.07
2019-05-01T22:07:29.971Z,61.50
2019-05-01T22:09:59.729Z,63.80
2019-05-01T22:12:29.550Z,64.67
2019-05-01T22:15:06.097Z,62.63
2019-05-01T22:17:55.863Z,63.47
2019-05-01T22:20:33.131Z,50.77
2019-05-01T22:23:06.512Z,51.53
2019-05-01T22:25:40.215Z,48.33
2019-05-01T22:28:18.757Z,53.57
2019-05-01T22:31:11.566Z,50.43
2019-05-01T22:33:42.266Z,52.00
2019-05-01T22:36:12.473Z,51.03
2019-05-01T22:38:42.317Z,51.43
2019-05-01T22:41:12.943Z,53.03
2019-05-01T22:43:42.889Z,49.60
2019-05-01T22:46:19.299Z,51.50
2019-05-01T22:48:49.004Z,55.00
2019-05-01T22:51:23.715Z,49.60
2019-05-01T22:53:56.479Z,49.60
2019-05-01T22:56:26.641Z,51.37
2019-05-01T22:58:56.696Z,50.97
2019-05-01T23:01:27.645Z,47.60
2019-05-01T23:04:17.297Z,49.30
2019-05-01T23:06:47.008Z,47.67
2019-05-01T23:09:23.427Z,48.60
2019-05-01T23:11:50.825Z,52.77
2019-05-01T23:14:22.253Z,50.70
2019-05-01T23:17:03.544Z,49.53
2019-05-01T23:19:34.370Z,52.57
2019-05-01T23:22:05.400Z,51.30
2019-05-01T23:24:35.054Z,48.60
2019-05-01T23:27:04.846Z,47.87
2019-05-01T23:29:34.692Z,49.23
2019-05-01T23:32:05.466Z,51.10
2019-05-01T23:34:35.499Z,49.23
2019-05-01T23:37:05.824Z,50.20
2019-05-01T23:39:40.418Z,51.07
2019-05-01T23:42:07.475Z,50.00
2019-05-01T23:44:38.251Z,51.47
2019-05-01T23:47:09.042Z,50.23
2019-05-01T23:49:38.827Z,53.70
2019-05-01T23:52:08.977Z,50.63
2019-05-01T23:54:38.730Z,53.03
2019-05-01T23:57:08.823Z,50.57
2019-05-01T23:59:38.645Z,56.50
